Portada
METAR-TAF:

METAR-TAF

Aeroports :

Conyac, França

latitud: 45-40N, longitud: 000-19W, altitud: 30 m

Observació

L'informe es va fer fa 37 minuts, a les 22:30 UTC
Vent 8 kt del Est
Temperatura 2°C
Humitat 100%
Pressió 1014 hPa
Visibilitat: 8000 m

METAR: LFBG 192230Z AUTO 09008KT 8000 NSC 02/02 Q1014

Hora: 00:07 (23:07 UTC)

Pronòstic

L'informe es va fer fa 9 hores i 7 minuts, a les 14:00 UTC
Pronòstic vàlid del 19 a les 15 UTC al 20 a les 15 UTC
Vent 5 kt del Est
Visibilitat 10 km o més
Escasses núvols a una alçada de 3500 ft
Evolucionant progressivament
l' 19 a les 21 UTC al 19 a les 23 UTC
Visibilitat: 4000 m
boirina
Evolucionant progressivament
l' 20 a les 00 UTC al 20 a les 02 UTC
Visibilitat: 0800 m
boira
Evolucionant progressivament
l' 20 a les 08 UTC al 20 a les 10 UTC
Visibilitat 10 km o més
sense núvols per sota de 1500 mi sense presència de cumulonimbus.

TAF: LFBG 191400Z 1915/2015 09005KT 9999 FEW035 BECMG 1921/1923 4000 BR BECMG 2000/2002 0800 FG BECMG 2008/2010 CAVOK

Observacions i pronòstics meteorològics de més de 4000 aeroports (METAR i TAF).

Les estacions disponibles són els punts grocs i vermells al mapa.

Posi el ratolí al punt desitjat per veure el nom de l'estació.

Feu clic per veure les observacions i els pronòstics meteorològics.

Per canviar el mapa: feu clic els botons verds amb una creu de color negre per apropar; al botó verd amb un guió per allunyar la imatge; o en les fletxes verdes per a mapes adjacents.


METAR-TAF: